createdAt,value
2023-06-19T00:01:04.386Z,9.00
2023-06-19T00:03:39.378Z,8.60
2023-06-19T00:06:06.715Z,7.30
2023-06-19T00:08:33.714Z,6.60
2023-06-19T00:11:00.424Z,6.50
2023-06-19T00:13:27.328Z,8.50
2023-06-19T00:15:54.243Z,9.50
2023-06-19T00:18:21.338Z,12.20
2023-06-19T00:20:48.016Z,10.70
2023-06-19T00:23:17.183Z,6.20
2023-06-19T00:25:44.950Z,7.30
2023-06-19T00:28:15.303Z,5.40
2023-06-19T00:30:42.268Z,7.40
2023-06-19T00:33:09.213Z,5.90
2023-06-19T00:35:35.958Z,8.70
2023-06-19T00:38:02.570Z,9.00
2023-06-19T00:40:30.445Z,11.80
2023-06-19T00:42:57.810Z,6.80
2023-06-19T00:45:25.816Z,8.20
2023-06-19T00:47:53.936Z,8.00
2023-06-19T00:50:24.568Z,8.00
2023-06-19T00:52:52.074Z,9.80
2023-06-19T00:55:19.441Z,9.40
2023-06-19T00:57:46.741Z,6.90
2023-06-19T01:00:14.161Z,8.10
2023-06-19T01:02:41.547Z,7.90
2023-06-19T01:05:08.544Z,7.40
2023-06-19T01:07:56.968Z,6.80
2023-06-19T01:10:28.938Z,8.60
2023-06-19T01:13:01.241Z,6.30
2023-06-19T01:15:28.480Z,9.30
2023-06-19T01:17:57.953Z,15.30
2023-06-19T01:20:26.321Z,7.90
2023-06-19T01:22:56.944Z,8.70
2023-06-19T01:25:24.831Z,14.80
2023-06-19T01:27:52.420Z,9.10
2023-06-19T01:30:19.965Z,9.90
2023-06-19T01:32:57.669Z,5.90
2023-06-19T01:35:33.342Z,14.10
2023-06-19T01:38:01.690Z,5.80
2023-06-19T01:40:32.107Z,6.20
2023-06-19T01:43:04.912Z,7.40
2023-06-19T01:45:32.548Z,6.10
2023-06-19T01:48:00.770Z,10.00
2023-06-19T01:50:27.579Z,13.30
2023-06-19T01:52:54.452Z,6.90
2023-06-19T01:55:21.470Z,6.10
2023-06-19T01:57:48.208Z,6.40
2023-06-19T02:00:15.402Z,7.00
2023-06-19T02:02:42.690Z,14.90
2023-06-19T02:05:09.788Z,11.60
2023-06-19T02:07:36.418Z,5.70
2023-06-19T02:10:03.262Z,10.70
2023-06-19T02:12:30.724Z,9.30
2023-06-19T02:14:57.404Z,6.60
2023-06-19T02:17:24.000Z,8.50
2023-06-19T02:19:50.634Z,6.40
2023-06-19T02:22:18.739Z,9.40
2023-06-19T02:24:46.948Z,6.20
2023-06-19T02:27:13.973Z,6.70
2023-06-19T02:29:40.557Z,7.20
2023-06-19T02:32:07.723Z,5.70
2023-06-19T02:34:34.332Z,9.60
2023-06-19T02:37:01.159Z,7.80
2023-06-19T02:39:27.925Z,6.10
2023-06-19T02:41:54.780Z,6.40
2023-06-19T02:44:21.329Z,9.30
2023-06-19T02:46:48.215Z,7.40
2023-06-19T02:49:16.460Z,9.60
2023-06-19T02:51:43.686Z,8.20
2023-06-19T02:54:10.533Z,20.80
2023-06-19T02:56:39.249Z,10.20
2023-06-19T02:59:06.009Z,9.50
2023-06-19T03:01:34.838Z,8.70
2023-06-19T03:04:01.567Z,7.20
2023-06-19T03:06:28.521Z,4.30
2023-06-19T03:08:55.615Z,8.10
2023-06-19T03:11:22.447Z,8.00
2023-06-19T03:13:52.357Z,7.70
2023-06-19T03:16:20.855Z,9.20
2023-06-19T03:18:51.729Z,5.60
2023-06-19T03:21:20.430Z,6.80
2023-06-19T03:23:48.102Z,6.00
2023-06-19T03:26:16.305Z,11.30
2023-06-19T03:28:43.237Z,6.90
2023-06-19T03:31:10.360Z,6.60
2023-06-19T03:33:37.315Z,7.00
2023-06-19T03:36:05.223Z,10.90
2023-06-19T03:38:45.760Z,8.50
2023-06-19T03:41:13.632Z,7.40
2023-06-19T03:43:40.434Z,9.20
2023-06-19T03:46:07.149Z,6.70
2023-06-19T03:48:34.052Z,9.70
2023-06-19T03:51:01.847Z,6.10
2023-06-19T03:53:28.578Z,6.80
2023-06-19T03:55:56.774Z,11.80
2023-06-19T03:58:23.564Z,7.70
2023-06-19T04:00:50.333Z,9.50
2023-06-19T04:03:19.404Z,6.20
2023-06-19T04:05:46.183Z,8.00
2023-06-19T04:08:12.901Z,4.90
2023-06-19T04:10:44.076Z,6.20
2023-06-19T04:13:10.754Z,7.30
2023-06-19T04:15:38.149Z,7.60
2023-06-19T04:18:05.176Z,7.90
2023-06-19T04:20:32.041Z,6.70
2023-06-19T04:22:58.834Z,6.90
2023-06-19T04:25:25.420Z,9.00
2023-06-19T04:27:52.825Z,8.60
2023-06-19T04:30:21.644Z,7.00
2023-06-19T04:32:48.986Z,7.10
2023-06-19T04:35:17.841Z,8.50
2023-06-19T04:37:44.677Z,8.50
2023-06-19T04:40:11.696Z,8.10
2023-06-19T04:42:39.485Z,17.90
2023-06-19T04:45:07.784Z,7.20
2023-06-19T04:47:47.859Z,6.20
2023-06-19T04:50:23.581Z,5.90
2023-06-19T04:52:51.012Z,5.50
2023-06-19T04:55:17.637Z,7.70
2023-06-19T04:57:44.302Z,6.10
2023-06-19T05:00:11.775Z,6.40
2023-06-19T05:02:38.779Z,7.80
2023-06-19T05:05:06.295Z,7.50
2023-06-19T05:07:33.299Z,6.10
2023-06-19T05:10:00.248Z,5.70
2023-06-19T05:12:27.402Z,6.50
2023-06-19T05:14:54.489Z,6.70
2023-06-19T05:17:21.373Z,6.20
2023-06-19T05:19:48.684Z,5.40
2023-06-19T05:22:15.577Z,9.00
2023-06-19T05:24:42.382Z,7.60
2023-06-19T05:27:09.342Z,6.50
2023-06-19T05:29:35.992Z,8.50
2023-06-19T05:32:03.141Z,9.40
2023-06-19T05:34:30.069Z,8.30
2023-06-19T05:36:58.891Z,8.60
2023-06-19T05:39:25.503Z,8.00
2023-06-19T05:41:52.133Z,6.80
2023-06-19T05:44:19.641Z,6.20
2023-06-19T05:46:46.488Z,7.10
2023-06-19T05:49:13.541Z,7.00
2023-06-19T05:51:40.316Z,6.90
2023-06-19T05:54:06.900Z,5.60
2023-06-19T05:56:34.284Z,7.30
2023-06-19T05:59:04.964Z,5.30
2023-06-19T06:01:31.916Z,5.60
2023-06-19T06:03:58.715Z,24.60
2023-06-19T06:06:26.134Z,65.90
2023-06-19T06:08:53.092Z,149.60
2023-06-19T06:11:19.793Z,101.40
2023-06-19T06:13:46.526Z,67.20
2023-06-19T06:16:13.546Z,59.90
2023-06-19T06:18:40.633Z,42.50
2023-06-19T06:21:07.268Z,26.10
2023-06-19T06:23:34.336Z,25.50
2023-06-19T06:26:04.318Z,17.00
2023-06-19T06:28:32.168Z,19.10
2023-06-19T06:30:58.843Z,13.70
2023-06-19T06:33:25.765Z,11.10
2023-06-19T06:35:55.428Z,10.00
2023-06-19T06:38:22.419Z,11.20
2023-06-19T06:40:49.466Z,9.20
2023-06-19T06:43:16.291Z,11.90
2023-06-19T06:45:43.622Z,10.00
2023-06-19T06:48:10.558Z,10.30
2023-06-19T06:50:37.339Z,8.90
2023-06-19T06:53:04.191Z,13.00
2023-06-19T06:55:31.417Z,10.00
2023-06-19T06:57:58.344Z,9.70
2023-06-19T07:00:25.225Z,7.30
2023-06-19T07:02:52.148Z,9.80
2023-06-19T07:05:18.905Z,7.80
2023-06-19T07:07:46.226Z,10.70
2023-06-19T07:10:13.156Z,8.20
2023-06-19T07:12:49.874Z,9.60
2023-06-19T07:15:16.778Z,7.30
2023-06-19T07:17:46.973Z,7.00
2023-06-19T07:20:14.884Z,7.20
2023-06-19T07:22:43.412Z,7.80
2023-06-19T07:25:12.469Z,8.10
2023-06-19T07:27:43.196Z,7.70
2023-06-19T07:30:11.806Z,6.30
2023-06-19T07:32:39.752Z,7.60
2023-06-19T07:35:08.056Z,8.10
2023-06-19T07:37:35.954Z,8.70
2023-06-19T07:40:03.943Z,8.30
2023-06-19T07:42:30.540Z,8.10
2023-06-19T07:44:57.385Z,9.00
2023-06-19T07:47:24.302Z,5.90
2023-06-19T07:49:50.884Z,5.40
2023-06-19T07:52:17.615Z,6.10
2023-06-19T07:54:58.485Z,7.50
2023-06-19T07:57:26.754Z,6.00
2023-06-19T07:59:55.428Z,6.50
2023-06-19T08:02:22.586Z,5.70
2023-06-19T08:04:49.530Z,9.20
2023-06-19T08:07:16.832Z,6.50
2023-06-19T08:09:43.517Z,6.60
2023-06-19T08:12:10.435Z,7.50
2023-06-19T08:14:38.872Z,8.30
2023-06-19T08:17:06.209Z,8.30
2023-06-19T08:19:33.042Z,7.10
2023-06-19T08:21:59.761Z,9.20
2023-06-19T08:24:26.709Z,7.70
2023-06-19T08:26:53.983Z,9.30
2023-06-19T08:29:23.274Z,13.40
2023-06-19T08:31:49.863Z,11.10
2023-06-19T08:34:16.504Z,8.00
2023-06-19T08:36:43.200Z,13.50
2023-06-19T08:39:10.466Z,10.30
2023-06-19T08:41:38.998Z,10.00
2023-06-19T08:44:06.405Z,10.10
2023-06-19T08:46:34.809Z,11.90
2023-06-19T08:49:01.985Z,9.00
2023-06-19T08:51:31.382Z,9.60
2023-06-19T08:54:05.538Z,9.50
2023-06-19T08:56:34.628Z,9.90
2023-06-19T08:59:17.728Z,8.70
2023-06-19T09:01:52.420Z,11.50
2023-06-19T09:04:24.195Z,10.50
2023-06-19T09:06:59.590Z,12.90
2023-06-19T09:09:27.596Z,9.10
2023-06-19T09:12:06.459Z,11.10
2023-06-19T09:14:42.090Z,9.60
2023-06-19T09:17:20.580Z,10.20
2023-06-19T09:19:50.497Z,8.90
2023-06-19T09:22:21.489Z,11.00
2023-06-19T09:24:49.028Z,8.50
2023-06-19T09:27:20.035Z,8.60
2023-06-19T09:29:49.937Z,11.50
2023-06-19T09:32:20.917Z,7.90
2023-06-19T09:34:51.605Z,8.20
2023-06-19T09:37:30.543Z,7.50
2023-06-19T09:40:00.098Z,7.60
2023-06-19T09:42:34.687Z,8.20
2023-06-19T09:45:12.525Z,9.40
2023-06-19T09:47:46.975Z,7.80
2023-06-19T09:50:17.513Z,8.50
2023-06-19T09:52:51.589Z,7.20
2023-06-19T09:55:20.118Z,10.20
2023-06-19T09:57:48.931Z,7.10
2023-06-19T10:00:22.604Z,7.10
2023-06-19T10:02:50.499Z,6.90
2023-06-19T10:05:19.181Z,6.60
2023-06-19T10:07:47.355Z,5.70
2023-06-19T10:10:25.412Z,5.90
2023-06-19T10:12:55.767Z,4.50
2023-06-19T10:15:27.763Z,5.40
2023-06-19T10:17:59.712Z,5.50
2023-06-19T10:20:36.394Z,7.40
2023-06-19T10:23:18.196Z,4.40
2023-06-19T10:25:47.444Z,7.00
2023-06-19T10:28:25.511Z,4.30
2023-06-19T10:30:53.189Z,9.10
2023-06-19T10:33:20.113Z,6.00
2023-06-19T10:35:47.120Z,4.30
2023-06-19T10:38:17.262Z,3.70
2023-06-19T10:40:45.589Z,4.10
2023-06-19T10:43:13.502Z,5.70
2023-06-19T10:45:40.298Z,4.80
2023-06-19T10:48:07.340Z,3.40
2023-06-19T10:50:38.701Z,3.30
2023-06-19T10:53:05.679Z,3.70
2023-06-19T10:55:34.574Z,6.70
2023-06-19T10:58:03.113Z,5.30
2023-06-19T11:00:31.806Z,4.60
2023-06-19T11:02:59.120Z,4.60
2023-06-19T11:05:29.102Z,4.60
2023-06-19T11:07:58.217Z,4.50
2023-06-19T11:10:29.724Z,4.30
2023-06-19T11:12:58.107Z,5.50
2023-06-19T11:15:32.524Z,4.40
2023-06-19T11:18:01.119Z,3.80
2023-06-19T11:20:27.879Z,4.20
2023-06-19T11:22:57.191Z,4.00
2023-06-19T11:25:24.743Z,4.40
2023-06-19T11:27:52.508Z,4.40
2023-06-19T11:30:22.343Z,5.20
2023-06-19T11:32:52.701Z,4.40
2023-06-19T11:35:19.513Z,5.10
2023-06-19T11:37:46.084Z,4.70
2023-06-19T11:40:15.811Z,4.20
2023-06-19T11:42:48.498Z,6.20
2023-06-19T11:45:15.682Z,4.30
2023-06-19T11:47:44.253Z,5.60
2023-06-19T11:50:11.905Z,4.70
2023-06-19T11:52:39.407Z,5.50
2023-06-19T11:55:06.949Z,4.50
2023-06-19T11:57:33.959Z,7.10
2023-06-19T12:00:00.760Z,4.70
2023-06-19T12:02:27.599Z,5.10
2023-06-19T12:04:54.624Z,5.00
2023-06-19T12:07:21.505Z,5.60
2023-06-19T12:09:48.082Z,5.40
2023-06-19T12:12:14.768Z,8.90
2023-06-19T12:14:41.773Z,5.40
2023-06-19T12:17:08.861Z,4.60
2023-06-19T12:19:35.803Z,4.70
2023-06-19T12:22:04.695Z,4.70
2023-06-19T12:24:31.578Z,4.20
2023-06-19T12:26:58.316Z,4.00
2023-06-19T12:29:26.627Z,3.30
2023-06-19T12:31:53.229Z,3.30
2023-06-19T12:34:30.319Z,3.60
2023-06-19T12:36:58.822Z,3.90
2023-06-19T12:39:26.775Z,4.00
2023-06-19T12:41:53.335Z,4.70
2023-06-19T12:44:23.033Z,3.50
2023-06-19T12:46:50.186Z,4.30
2023-06-19T12:49:16.974Z,3.60
2023-06-19T12:51:43.688Z,4.00
2023-06-19T12:54:10.409Z,5.40
2023-06-19T12:56:37.334Z,7.30
2023-06-19T12:59:03.949Z,4.10
2023-06-19T13:01:30.905Z,4.30
2023-06-19T13:03:57.735Z,4.40
2023-06-19T13:06:24.720Z,4.10
2023-06-19T13:08:52.832Z,3.80
2023-06-19T13:11:19.585Z,6.50
2023-06-19T13:13:46.197Z,3.80
2023-06-19T13:16:14.973Z,4.90
2023-06-19T13:18:42.595Z,4.50
2023-06-19T13:21:09.300Z,3.90
2023-06-19T13:23:35.926Z,4.60
2023-06-19T13:26:02.810Z,6.50
2023-06-19T13:28:29.452Z,4.00
2023-06-19T13:30:56.042Z,5.40
2023-06-19T13:33:22.631Z,4.10
2023-06-19T13:35:49.252Z,4.20
2023-06-19T13:38:16.291Z,3.70
2023-06-19T13:40:43.042Z,4.90
2023-06-19T13:43:10.782Z,5.20
2023-06-19T13:45:39.133Z,4.80
2023-06-19T13:48:06.300Z,3.90
2023-06-19T13:50:33.587Z,4.60
2023-06-19T13:53:02.403Z,4.70
2023-06-19T13:55:29.105Z,4.40
2023-06-19T13:57:55.901Z,4.80
2023-06-19T14:00:22.908Z,4.90
2023-06-19T14:02:50.625Z,4.50
2023-06-19T14:05:17.615Z,4.30
2023-06-19T14:07:44.535Z,4.30
2023-06-19T14:10:11.516Z,5.80
2023-06-19T14:12:38.100Z,4.30
2023-06-19T14:15:08.549Z,5.30
2023-06-19T14:17:35.446Z,4.50
2023-06-19T14:20:04.875Z,4.50
2023-06-19T14:22:31.991Z,4.10
2023-06-19T14:25:00.082Z,4.40
2023-06-19T14:27:27.116Z,5.90
2023-06-19T14:29:55.180Z,4.30
2023-06-19T14:32:24.993Z,4.20
2023-06-19T14:34:52.147Z,5.20
2023-06-19T14:37:18.854Z,4.10
2023-06-19T14:39:46.023Z,4.60
2023-06-19T14:42:12.655Z,5.70
2023-06-19T14:44:39.323Z,4.50
2023-06-19T14:47:07.279Z,4.30
2023-06-19T14:49:34.406Z,6.20
2023-06-19T14:52:01.099Z,7.60
2023-06-19T14:54:27.789Z,7.30
2023-06-19T14:56:54.385Z,5.00
2023-06-19T14:59:21.285Z,5.20
2023-06-19T15:01:47.879Z,6.20
2023-06-19T15:04:14.619Z,5.30
2023-06-19T15:06:41.609Z,6.50
2023-06-19T15:09:08.476Z,5.80
2023-06-19T15:11:35.860Z,5.30
2023-06-19T15:14:02.433Z,5.50
2023-06-19T15:16:29.089Z,5.10
2023-06-19T15:18:55.769Z,6.90
2023-06-19T15:21:22.703Z,5.50
2023-06-19T15:23:49.699Z,5.50
2023-06-19T15:26:16.411Z,5.50
2023-06-19T15:28:44.393Z,5.90
2023-06-19T15:31:11.046Z,5.80
2023-06-19T15:33:37.635Z,7.60
2023-06-19T15:36:05.123Z,6.30
2023-06-19T15:38:32.153Z,7.90
2023-06-19T15:40:59.010Z,6.30
2023-06-19T15:43:29.150Z,6.40
2023-06-19T15:45:56.570Z,6.80
2023-06-19T15:48:23.766Z,6.50
2023-06-19T15:50:50.404Z,5.70
2023-06-19T15:53:17.504Z,6.70
2023-06-19T15:55:44.415Z,7.50
2023-06-19T15:58:11.256Z,7.10
2023-06-19T16:00:38.645Z,8.80
2023-06-19T16:03:07.459Z,5.90
2023-06-19T16:05:35.798Z,6.00
2023-06-19T16:08:02.768Z,7.20
2023-06-19T16:10:29.398Z,7.20
2023-06-19T16:12:56.249Z,7.00
2023-06-19T16:15:28.307Z,9.40
2023-06-19T16:17:55.964Z,9.60
2023-06-19T16:20:23.796Z,8.40
2023-06-19T16:22:51.161Z,5.70
2023-06-19T16:25:18.259Z,7.80
2023-06-19T16:27:45.321Z,7.10
2023-06-19T16:30:12.321Z,9.80
2023-06-19T16:32:39.032Z,9.00
2023-06-19T16:35:06.900Z,8.20
2023-06-19T16:37:33.834Z,9.70
2023-06-19T16:40:01.128Z,7.40
2023-06-19T16:42:27.752Z,8.60
2023-06-19T16:44:54.731Z,7.80
2023-06-19T16:47:21.533Z,5.80
2023-06-19T16:49:48.737Z,6.20
2023-06-19T16:52:15.452Z,6.90
2023-06-19T16:54:42.532Z,6.10
2023-06-19T16:57:09.207Z,5.80
2023-06-19T16:59:36.032Z,5.60
2023-06-19T17:02:03.513Z,10.20
2023-06-19T17:04:30.325Z,6.50
2023-06-19T17:06:56.863Z,9.30
2023-06-19T17:09:23.493Z,7.00
2023-06-19T17:11:52.224Z,8.80
2023-06-19T17:14:21.017Z,6.60
2023-06-19T17:16:47.979Z,9.00
2023-06-19T17:19:14.847Z,6.00
2023-06-19T17:21:41.488Z,7.50
2023-06-19T17:24:08.644Z,5.40
2023-06-19T17:26:35.530Z,8.60
2023-06-19T17:29:04.769Z,6.50
2023-06-19T17:31:31.371Z,7.80
2023-06-19T17:33:57.957Z,6.70
2023-06-19T17:36:24.458Z,5.60
2023-06-19T17:38:51.308Z,6.20
2023-06-19T17:41:17.937Z,6.80
2023-06-19T17:43:44.772Z,5.80
2023-06-19T17:46:12.360Z,6.90
2023-06-19T17:48:41.679Z,10.50
2023-06-19T17:51:08.628Z,8.30
2023-06-19T17:53:35.378Z,7.50
2023-06-19T17:56:05.307Z,8.60
2023-06-19T17:58:32.476Z,10.20
2023-06-19T18:00:59.056Z,8.90
2023-06-19T18:03:25.726Z,12.20
2023-06-19T18:05:52.616Z,7.70
2023-06-19T18:08:19.536Z,11.60
2023-06-19T18:10:47.020Z,9.80
2023-06-19T18:13:13.644Z,9.10
2023-06-19T18:15:40.391Z,6.70
2023-06-19T18:18:07.281Z,20.40
2023-06-19T18:20:34.232Z,15.50
2023-06-19T18:23:00.859Z,18.90
2023-06-19T18:25:27.708Z,28.40
2023-06-19T18:27:56.031Z,19.80
2023-06-19T18:30:25.187Z,29.40
2023-06-19T18:32:53.653Z,18.00
2023-06-19T18:35:20.700Z,11.50
2023-06-19T18:37:47.655Z,16.40
2023-06-19T18:40:14.812Z,17.10
2023-06-19T18:42:44.935Z,15.90
2023-06-19T18:45:11.885Z,12.30
2023-06-19T18:47:40.695Z,13.40
2023-06-19T18:50:09.986Z,11.00
2023-06-19T18:52:40.157Z,8.50
2023-06-19T18:55:09.110Z,8.40
2023-06-19T18:57:41.016Z,9.70
2023-06-19T19:00:09.047Z,8.30
2023-06-19T19:02:36.554Z,10.80
2023-06-19T19:05:04.485Z,13.10
2023-06-19T19:07:32.352Z,12.70
2023-06-19T19:10:00.057Z,10.10
2023-06-19T19:12:29.638Z,9.40
2023-06-19T19:14:59.713Z,12.00
2023-06-19T19:17:26.613Z,11.40
2023-06-19T19:19:54.483Z,12.40
2023-06-19T19:22:25.936Z,8.20
2023-06-19T19:24:53.415Z,10.10
2023-06-19T19:27:20.854Z,6.80
2023-06-19T19:29:48.017Z,9.10
2023-06-19T19:32:14.971Z,6.30
2023-06-19T19:34:41.732Z,6.50
2023-06-19T19:37:08.516Z,10.40
2023-06-19T19:39:35.904Z,8.70
2023-06-19T19:42:04.259Z,6.60
2023-06-19T19:44:31.193Z,11.90
2023-06-19T19:46:57.925Z,9.70
2023-06-19T19:49:27.114Z,9.00
2023-06-19T19:51:53.963Z,5.90
2023-06-19T19:54:20.476Z,7.90
2023-06-19T19:56:47.537Z,6.70
2023-06-19T19:59:14.570Z,12.30
2023-06-19T20:01:41.249Z,7.00
2023-06-19T20:04:08.155Z,9.40
2023-06-19T20:06:35.228Z,6.40
2023-06-19T20:09:01.925Z,8.20
2023-06-19T20:11:30.880Z,5.90
2023-06-19T20:13:57.801Z,6.40
2023-06-19T20:16:24.820Z,7.20
2023-06-19T20:18:51.552Z,6.60
2023-06-19T20:21:18.156Z,5.50
2023-06-19T20:23:45.041Z,6.40
2023-06-19T20:26:12.701Z,10.10
2023-06-19T20:28:40.903Z,6.80
2023-06-19T20:31:07.719Z,8.10
2023-06-19T20:33:34.678Z,12.50
2023-06-19T20:36:01.521Z,9.10
2023-06-19T20:38:28.484Z,12.00
2023-06-19T20:40:55.122Z,10.60
2023-06-19T20:43:22.068Z,11.50
2023-06-19T20:45:48.865Z,14.80
2023-06-19T20:48:15.765Z,12.70
2023-06-19T20:50:42.740Z,10.50
2023-06-19T20:53:09.783Z,9.10
2023-06-19T20:55:36.720Z,10.00
2023-06-19T20:58:04.947Z,11.70
2023-06-19T21:00:32.108Z,12.10
2023-06-19T21:02:59.474Z,6.70
2023-06-19T21:05:26.410Z,8.60
2023-06-19T21:07:53.585Z,9.30
2023-06-19T21:10:20.376Z,10.20
2023-06-19T21:12:47.171Z,8.70
2023-06-19T21:15:13.960Z,7.40
2023-06-19T21:17:40.844Z,5.50
2023-06-19T21:20:11.046Z,7.00
2023-06-19T21:22:38.967Z,8.30
2023-06-19T21:25:07.316Z,5.80
2023-06-19T21:27:34.871Z,8.30
2023-06-19T21:30:01.931Z,6.00
2023-06-19T21:32:29.024Z,5.80
2023-06-19T21:34:55.839Z,5.90
2023-06-19T21:37:22.780Z,8.90
2023-06-19T21:39:49.380Z,6.50
2023-06-19T21:42:16.301Z,7.20
2023-06-19T21:44:43.973Z,7.10
2023-06-19T21:47:10.632Z,5.50
2023-06-19T21:49:39.269Z,6.40
2023-06-19T21:52:07.778Z,5.20
2023-06-19T21:54:34.623Z,8.20
2023-06-19T21:57:01.712Z,6.00
2023-06-19T21:59:28.448Z,7.70
2023-06-19T22:01:55.179Z,6.20
2023-06-19T22:04:22.080Z,4.90
2023-06-19T22:06:48.981Z,9.90
2023-06-19T22:09:15.703Z,8.80
2023-06-19T22:11:42.713Z,9.70
2023-06-19T22:14:09.538Z,8.90
2023-06-19T22:16:36.199Z,7.50
2023-06-19T22:19:03.060Z,7.40
2023-06-19T22:21:29.864Z,5.00
2023-06-19T22:23:56.525Z,8.60
2023-06-19T22:26:23.349Z,6.10
2023-06-19T22:28:49.923Z,4.40
2023-06-19T22:31:16.488Z,5.60
2023-06-19T22:33:43.466Z,5.20
2023-06-19T22:36:10.842Z,5.30
2023-06-19T22:38:37.690Z,5.40
2023-06-19T22:41:04.425Z,5.30
2023-06-19T22:43:31.244Z,5.80
2023-06-19T22:45:58.129Z,4.80
2023-06-19T22:48:27.021Z,5.50
2023-06-19T22:50:53.691Z,7.10
2023-06-19T22:53:21.332Z,6.10
2023-06-19T22:55:48.459Z,6.60
2023-06-19T22:58:15.465Z,4.50
2023-06-19T23:00:42.489Z,5.00
2023-06-19T23:03:09.258Z,4.90
2023-06-19T23:05:36.357Z,5.30
2023-06-19T23:08:03.274Z,4.80
2023-06-19T23:10:29.852Z,5.70
2023-06-19T23:12:56.570Z,18.20
2023-06-19T23:15:23.521Z,5.40
2023-06-19T23:17:53.553Z,7.70
2023-06-19T23:20:21.249Z,4.80
2023-06-19T23:22:51.258Z,5.10
2023-06-19T23:25:17.836Z,4.70
2023-06-19T23:27:44.431Z,4.50
2023-06-19T23:30:11.678Z,7.60
2023-06-19T23:32:38.702Z,6.30
2023-06-19T23:35:05.895Z,5.00
2023-06-19T23:37:32.685Z,5.80
2023-06-19T23:39:59.537Z,5.00
2023-06-19T23:42:26.211Z,6.40
2023-06-19T23:44:52.856Z,7.30
2023-06-19T23:47:19.584Z,5.30
2023-06-19T23:49:46.343Z,6.50
2023-06-19T23:52:12.937Z,7.00
2023-06-19T23:54:39.573Z,5.40
2023-06-19T23:57:08.304Z,5.00
2023-06-19T23:59:34.996Z,5.00
